createdAt,value
2019-05-19T00:00:08.418Z,985.53
2019-05-19T00:01:08.256Z,985.50
2019-05-19T00:02:08.257Z,985.50
2019-05-19T00:03:08.256Z,985.45
2019-05-19T00:04:08.261Z,985.41
2019-05-19T00:05:08.257Z,985.44
2019-05-19T00:06:08.256Z,985.37
2019-05-19T00:07:08.251Z,985.39
2019-05-19T00:08:08.249Z,985.41
2019-05-19T00:09:08.269Z,985.41
2019-05-19T00:10:08.246Z,985.45
2019-05-19T00:11:08.280Z,985.47
2019-05-19T00:12:08.251Z,985.49
2019-05-19T00:13:08.251Z,985.48
2019-05-19T00:14:08.240Z,985.52
2019-05-19T00:15:08.253Z,985.57
2019-05-19T00:16:08.247Z,985.61
2019-05-19T00:17:08.251Z,985.61
2019-05-19T00:18:08.245Z,985.58
2019-05-19T00:19:08.247Z,985.59
2019-05-19T00:20:08.247Z,985.59
2019-05-19T00:21:08.242Z,985.57
2019-05-19T00:22:08.243Z,985.56
2019-05-19T00:23:08.240Z,985.53
2019-05-19T00:24:08.245Z,985.53
2019-05-19T00:25:08.242Z,985.54
2019-05-19T00:26:08.249Z,985.55
2019-05-19T00:27:08.238Z,985.56
2019-05-19T00:28:08.252Z,985.54
2019-05-19T00:29:08.236Z,985.51
2019-05-19T00:30:08.244Z,985.59
2019-05-19T00:31:08.236Z,985.53
2019-05-19T00:32:08.236Z,985.49
2019-05-19T00:33:08.236Z,985.50
2019-05-19T00:34:08.234Z,985.51
2019-05-19T00:35:08.243Z,985.42
2019-05-19T00:36:08.240Z,985.43
2019-05-19T00:37:08.237Z,985.37
2019-05-19T00:38:08.244Z,985.36
2019-05-19T00:39:08.240Z,985.33
2019-05-19T00:40:08.237Z,985.33
2019-05-19T00:41:08.231Z,985.30
2019-05-19T00:42:08.229Z,985.28
2019-05-19T00:43:08.230Z,985.27
2019-05-19T00:44:08.229Z,985.22
2019-05-19T00:45:08.236Z,985.19
2019-05-19T00:46:08.232Z,985.16
2019-05-19T00:47:08.228Z,985.16
2019-05-19T00:48:08.225Z,985.13
2019-05-19T00:49:08.226Z,985.14
2019-05-19T00:50:08.238Z,985.15
2019-05-19T00:51:08.232Z,985.12
2019-05-19T00:52:08.224Z,985.06
2019-05-19T00:53:08.226Z,985.04
2019-05-19T00:54:08.227Z,985.03
2019-05-19T00:55:08.225Z,985.01
2019-05-19T00:56:08.220Z,985.02
2019-05-19T00:57:08.221Z,985.01
2019-05-19T00:58:08.225Z,984.99
2019-05-19T00:59:08.225Z,985.01
2019-05-19T01:00:08.236Z,984.98
2019-05-19T01:01:08.219Z,984.98
2019-05-19T01:02:08.218Z,984.98
2019-05-19T01:03:08.223Z,984.97
2019-05-19T01:04:08.223Z,985.00
2019-05-19T01:05:08.228Z,985.00
2019-05-19T01:06:08.263Z,984.98
2019-05-19T01:07:08.218Z,985.02
2019-05-19T01:08:08.213Z,985.01
2019-05-19T01:09:08.214Z,985.01
2019-05-19T01:10:08.226Z,985.05
2019-05-19T01:11:08.222Z,985.05
2019-05-19T01:12:08.268Z,985.04
2019-05-19T01:13:08.214Z,985.02
2019-05-19T01:14:08.241Z,985.01
2019-05-19T01:15:08.222Z,984.98
2019-05-19T01:16:08.210Z,984.99
2019-05-19T01:17:08.209Z,984.98
2019-05-19T01:18:08.209Z,984.92
2019-05-19T01:19:08.214Z,984.95
2019-05-19T01:20:08.235Z,984.95
2019-05-19T01:21:08.209Z,984.97
2019-05-19T01:22:08.208Z,984.96
2019-05-19T01:23:08.210Z,984.98
2019-05-19T01:24:08.215Z,984.95
2019-05-19T01:25:08.205Z,984.96
2019-05-19T01:26:08.225Z,984.91
2019-05-19T01:27:08.205Z,984.88
2019-05-19T01:28:08.207Z,984.86
2019-05-19T01:29:08.200Z,984.86
2019-05-19T01:30:08.209Z,984.82
2019-05-19T01:31:08.213Z,984.80
2019-05-19T01:32:08.199Z,984.77
2019-05-19T01:33:08.199Z,984.84
2019-05-19T01:34:08.199Z,984.83
2019-05-19T01:35:08.202Z,984.80
2019-05-19T01:36:08.201Z,984.80
2019-05-19T01:37:08.197Z,984.84
2019-05-19T01:38:08.212Z,984.89
2019-05-19T01:39:08.206Z,984.86
2019-05-19T01:40:08.205Z,984.88
2019-05-19T01:41:08.204Z,984.86
2019-05-19T01:42:08.194Z,984.89
2019-05-19T01:43:08.195Z,984.85
2019-05-19T01:44:08.205Z,984.89
2019-05-19T01:45:08.199Z,984.90
2019-05-19T01:46:08.201Z,984.86
2019-05-19T01:47:08.192Z,984.91
2019-05-19T01:48:08.195Z,984.91
2019-05-19T01:49:08.190Z,984.85
2019-05-19T01:50:17.598Z,984.88
2019-05-19T01:51:08.192Z,984.83
2019-05-19T01:52:08.196Z,984.81
2019-05-19T01:53:08.189Z,984.83
2019-05-19T01:54:08.189Z,984.77
2019-05-19T01:55:08.191Z,984.79
2019-05-19T01:56:08.196Z,984.73
2019-05-19T01:57:08.200Z,984.73
2019-05-19T01:58:08.185Z,984.70
2019-05-19T01:59:08.186Z,984.71
2019-05-19T02:00:08.186Z,984.72
2019-05-19T02:01:08.196Z,984.68
2019-05-19T02:02:08.191Z,984.70
2019-05-19T02:03:08.184Z,984.68
2019-05-19T02:04:08.187Z,984.62
2019-05-19T02:05:08.183Z,984.62
2019-05-19T02:06:08.207Z,984.61
2019-05-19T02:07:08.184Z,984.59
2019-05-19T02:08:08.181Z,984.59
2019-05-19T02:09:08.176Z,984.52
2019-05-19T02:10:08.190Z,984.56
2019-05-19T02:11:08.178Z,984.56
2019-05-19T02:12:08.180Z,984.57
2019-05-19T02:13:08.178Z,984.52
2019-05-19T02:14:08.179Z,984.57
2019-05-19T02:15:08.177Z,984.56
2019-05-19T02:16:08.175Z,984.52
2019-05-19T02:17:08.200Z,984.55
2019-05-19T02:18:08.173Z,984.57
2019-05-19T02:19:08.172Z,984.59
2019-05-19T02:20:08.171Z,984.54
2019-05-19T02:21:08.178Z,984.55
2019-05-19T02:22:08.175Z,984.55
2019-05-19T02:23:08.170Z,984.52
2019-05-19T02:24:08.180Z,984.54
2019-05-19T02:25:08.171Z,984.56
2019-05-19T02:26:08.168Z,984.59
2019-05-19T02:27:08.180Z,984.59
2019-05-19T02:28:08.173Z,984.59
2019-05-19T02:29:08.167Z,984.62
2019-05-19T02:30:08.166Z,984.58
2019-05-19T02:31:08.170Z,984.59
2019-05-19T02:32:08.176Z,984.54
2019-05-19T02:33:08.163Z,984.61
2019-05-19T02:34:08.166Z,984.63
2019-05-19T02:35:08.164Z,984.63
2019-05-19T02:36:08.161Z,984.63
2019-05-19T02:37:08.169Z,984.65
2019-05-19T02:38:08.166Z,984.68
2019-05-19T02:39:08.170Z,984.68
2019-05-19T02:40:08.161Z,984.69
2019-05-19T02:41:08.161Z,984.73
2019-05-19T02:42:08.175Z,984.74
2019-05-19T02:43:08.162Z,984.73
2019-05-19T02:44:08.161Z,984.72
2019-05-19T02:45:08.163Z,984.73
2019-05-19T02:46:08.158Z,984.68
2019-05-19T02:47:08.164Z,984.66
2019-05-19T02:48:08.156Z,984.65
2019-05-19T02:49:08.153Z,984.66
2019-05-19T02:50:08.156Z,984.64
2019-05-19T02:51:08.168Z,984.67
2019-05-19T02:52:08.164Z,984.66
2019-05-19T02:53:08.153Z,984.66
2019-05-19T02:54:08.152Z,984.65
2019-05-19T02:55:08.152Z,984.65
2019-05-19T02:56:08.152Z,984.63
2019-05-19T02:57:08.162Z,984.64
2019-05-19T02:58:08.154Z,984.65
2019-05-19T02:59:08.151Z,984.63
2019-05-19T03:00:08.202Z,984.62
2019-05-19T03:01:08.155Z,984.62
2019-05-19T03:02:08.158Z,984.66
2019-05-19T03:03:08.147Z,984.65
2019-05-19T03:04:08.148Z,984.65
2019-05-19T03:05:08.151Z,984.70
2019-05-19T03:06:08.151Z,984.71
2019-05-19T03:07:08.162Z,984.68
2019-05-19T03:08:08.153Z,984.70
2019-05-19T03:09:08.197Z,984.70
2019-05-19T03:10:08.145Z,984.73
2019-05-19T03:11:08.152Z,984.70
2019-05-19T03:12:08.170Z,984.71
2019-05-19T03:13:08.149Z,984.70
2019-05-19T03:14:08.143Z,984.66
2019-05-19T03:15:08.147Z,984.71
2019-05-19T03:16:08.137Z,984.73
2019-05-19T03:17:08.158Z,984.69
2019-05-19T03:18:08.143Z,984.73
2019-05-19T03:19:08.137Z,984.71
2019-05-19T03:20:08.139Z,984.73
2019-05-19T03:21:11.465Z,984.70
2019-05-19T03:22:08.135Z,984.68
2019-05-19T03:23:08.155Z,984.72
2019-05-19T03:24:08.137Z,984.71
2019-05-19T03:25:08.139Z,984.74
2019-05-19T03:26:08.134Z,984.70
2019-05-19T03:27:08.135Z,984.71
2019-05-19T03:28:08.136Z,984.69
2019-05-19T03:29:08.133Z,984.70
2019-05-19T03:30:08.136Z,984.67
2019-05-19T03:31:08.132Z,984.67
2019-05-19T03:32:12.385Z,984.67
2019-05-19T03:33:08.136Z,984.64
2019-05-19T03:34:08.132Z,984.66
2019-05-19T03:35:08.131Z,984.68
2019-05-19T03:36:08.127Z,984.69
2019-05-19T03:37:08.129Z,984.69
2019-05-19T03:38:08.144Z,984.71
2019-05-19T03:39:08.127Z,984.71
2019-05-19T03:40:08.126Z,984.72
2019-05-19T03:41:08.128Z,984.75
2019-05-19T03:42:10.418Z,984.73
2019-05-19T03:43:08.132Z,984.78
2019-05-19T03:44:08.128Z,984.79
2019-05-19T03:45:08.123Z,984.79
2019-05-19T03:46:08.122Z,984.80
2019-05-19T03:47:08.123Z,984.75
2019-05-19T03:48:08.124Z,984.78
2019-05-19T03:49:08.122Z,984.78
2019-05-19T03:50:08.120Z,984.79
2019-05-19T03:51:08.129Z,984.78
2019-05-19T03:52:08.119Z,984.79
2019-05-19T03:53:08.132Z,984.78
2019-05-19T03:54:08.126Z,984.75
2019-05-19T03:55:08.114Z,984.74
2019-05-19T03:56:08.120Z,984.68
2019-05-19T03:57:08.114Z,984.63
2019-05-19T03:58:08.401Z,984.60
2019-05-19T03:59:08.115Z,984.62
2019-05-19T04:00:08.113Z,984.67
2019-05-19T04:01:08.113Z,984.70
2019-05-19T04:02:08.121Z,984.82
2019-05-19T04:03:08.114Z,984.82
2019-05-19T04:04:08.120Z,984.92
2019-05-19T04:05:08.134Z,984.94
2019-05-19T04:06:08.109Z,984.97
2019-05-19T04:07:08.111Z,984.96
2019-05-19T04:08:08.106Z,984.95
2019-05-19T04:09:08.115Z,984.95
2019-05-19T04:10:08.113Z,984.92
2019-05-19T04:11:08.122Z,984.92
2019-05-19T04:12:08.107Z,984.87
2019-05-19T04:13:08.115Z,984.84
2019-05-19T04:14:08.109Z,984.80
2019-05-19T04:15:08.105Z,984.80
2019-05-19T04:16:08.108Z,984.77
2019-05-19T04:17:08.109Z,984.85
2019-05-19T04:18:08.107Z,984.88
2019-05-19T04:19:08.128Z,984.94
2019-05-19T04:20:08.111Z,984.97
2019-05-19T04:21:08.102Z,984.96
2019-05-19T04:22:08.101Z,984.95
2019-05-19T04:23:08.108Z,984.95
2019-05-19T04:24:08.102Z,984.93
2019-05-19T04:25:08.102Z,984.93
2019-05-19T04:26:08.101Z,984.91
2019-05-19T04:27:08.103Z,984.98
2019-05-19T04:28:08.100Z,985.04
2019-05-19T04:29:08.101Z,985.04
2019-05-19T04:30:08.096Z,985.01
2019-05-19T04:31:08.100Z,985.04
2019-05-19T04:32:08.094Z,985.04
2019-05-19T04:33:08.100Z,985.03
2019-05-19T04:34:08.105Z,985.05
2019-05-19T04:35:08.093Z,985.04
2019-05-19T04:36:08.099Z,985.07
2019-05-19T04:37:08.093Z,985.09
2019-05-19T04:38:08.090Z,985.04
2019-05-19T04:39:08.103Z,985.08
2019-05-19T04:40:08.091Z,985.03
2019-05-19T04:41:08.099Z,984.93
2019-05-19T04:42:08.089Z,984.94
2019-05-19T04:43:08.094Z,984.95
2019-05-19T04:44:08.108Z,984.97
2019-05-19T04:45:08.091Z,985.01
2019-05-19T04:46:08.087Z,985.05
2019-05-19T04:47:08.089Z,985.14
2019-05-19T04:48:09.693Z,985.08
2019-05-19T04:49:08.088Z,985.17
2019-05-19T04:50:08.092Z,985.16
2019-05-19T04:51:08.090Z,985.19
2019-05-19T04:52:08.086Z,985.22
2019-05-19T04:53:08.082Z,985.25
2019-05-19T04:54:08.083Z,985.25
2019-05-19T04:55:08.090Z,985.25
2019-05-19T04:56:08.081Z,985.29
2019-05-19T04:57:08.084Z,985.29
2019-05-19T04:58:08.089Z,985.28
2019-05-19T04:59:08.080Z,985.27
2019-05-19T05:00:08.088Z,985.31
2019-05-19T05:01:08.081Z,985.29
2019-05-19T05:02:08.079Z,985.25
2019-05-19T05:03:08.085Z,985.25
2019-05-19T05:04:08.077Z,985.24
2019-05-19T05:05:08.078Z,985.25
2019-05-19T05:06:08.075Z,985.32
2019-05-19T05:07:08.075Z,985.33
2019-05-19T05:08:08.074Z,985.31
2019-05-19T05:09:08.077Z,985.28
2019-05-19T05:10:08.084Z,985.21
2019-05-19T05:11:08.076Z,985.14
2019-05-19T05:12:08.069Z,985.12
2019-05-19T05:13:08.073Z,985.14
2019-05-19T05:14:08.069Z,985.12
2019-05-19T05:15:08.079Z,985.15
2019-05-19T05:16:08.079Z,985.16
2019-05-19T05:17:08.084Z,985.17
2019-05-19T05:18:08.068Z,985.15
2019-05-19T05:19:08.067Z,985.12
2019-05-19T05:20:08.093Z,985.13
2019-05-19T05:21:08.066Z,985.12
2019-05-19T05:22:21.341Z,985.10
2019-05-19T05:23:08.067Z,985.10
2019-05-19T05:24:08.066Z,985.16
2019-05-19T05:25:08.064Z,985.10
2019-05-19T05:26:08.065Z,985.15
2019-05-19T05:27:08.068Z,985.18
2019-05-19T05:28:08.060Z,985.21
2019-05-19T05:29:08.081Z,985.29
2019-05-19T05:30:08.060Z,985.32
2019-05-19T05:31:08.065Z,985.38
2019-05-19T05:32:08.059Z,985.41
2019-05-19T05:33:08.058Z,985.40
2019-05-19T05:34:08.058Z,985.45
2019-05-19T05:35:08.057Z,985.38
2019-05-19T05:36:08.065Z,985.36
2019-05-19T05:37:08.061Z,985.40
2019-05-19T05:38:08.057Z,985.41
2019-05-19T05:39:08.054Z,985.46
2019-05-19T05:40:08.057Z,985.54
2019-05-19T05:41:08.058Z,985.54
2019-05-19T05:42:08.053Z,985.53
2019-05-19T05:43:08.061Z,985.48
2019-05-19T05:44:08.052Z,985.43
2019-05-19T05:45:08.051Z,985.50
2019-05-19T05:46:08.055Z,985.50
2019-05-19T05:47:08.056Z,985.50
2019-05-19T05:48:08.051Z,985.50
2019-05-19T05:49:08.049Z,985.50
2019-05-19T05:50:08.052Z,985.45
2019-05-19T05:51:08.061Z,985.42
2019-05-19T05:52:08.047Z,985.35
2019-05-19T05:53:08.049Z,985.37
2019-05-19T05:54:08.051Z,985.35
2019-05-19T05:55:08.049Z,985.27
2019-05-19T05:56:08.053Z,985.20
2019-05-19T05:57:08.045Z,985.18
2019-05-19T05:58:08.049Z,985.14
2019-05-19T05:59:08.044Z,985.08
2019-05-19T06:00:08.044Z,985.11
2019-05-19T06:01:08.061Z,985.09
2019-05-19T06:02:08.046Z,985.09
2019-05-19T06:03:08.046Z,985.09
2019-05-19T06:04:08.043Z,985.11
2019-05-19T06:05:08.040Z,985.09
2019-05-19T06:06:08.056Z,985.10
2019-05-19T06:07:08.045Z,985.13
2019-05-19T06:08:08.037Z,985.16
2019-05-19T06:09:08.038Z,985.12
2019-05-19T06:10:08.037Z,985.12
2019-05-19T06:11:08.038Z,985.10
2019-05-19T06:12:08.040Z,984.99
2019-05-19T06:13:08.037Z,984.99
2019-05-19T06:14:08.038Z,984.98
2019-05-19T06:15:08.037Z,984.95
2019-05-19T06:16:08.035Z,984.97
2019-05-19T06:17:08.043Z,984.95
2019-05-19T06:18:08.033Z,984.96
2019-05-19T06:19:08.033Z,984.96
2019-05-19T06:20:08.294Z,984.96
2019-05-19T06:21:08.030Z,984.93
2019-05-19T06:22:08.033Z,984.97
2019-05-19T06:23:08.045Z,984.99
2019-05-19T06:24:08.029Z,984.99
2019-05-19T06:25:08.029Z,985.03
2019-05-19T06:26:08.031Z,985.02
2019-05-19T06:27:08.037Z,985.06
2019-05-19T06:28:08.027Z,985.06
2019-05-19T06:29:08.027Z,985.09
2019-05-19T06:30:08.841Z,985.08
2019-05-19T06:31:08.037Z,985.11
2019-05-19T06:32:08.038Z,985.10
2019-05-19T06:33:08.028Z,985.09
2019-05-19T06:34:08.024Z,985.08
2019-05-19T06:35:08.021Z,985.06
2019-05-19T06:36:08.029Z,985.06
2019-05-19T06:37:08.030Z,985.07
2019-05-19T06:38:08.021Z,985.05
2019-05-19T06:39:08.027Z,985.04
2019-05-19T06:40:08.023Z,985.08
2019-05-19T06:41:08.021Z,985.05
2019-05-19T06:42:08.032Z,985.06
2019-05-19T06:43:08.030Z,985.06
2019-05-19T06:44:08.021Z,985.11
2019-05-19T06:45:08.018Z,985.05
2019-05-19T06:46:08.016Z,985.05
2019-05-19T06:47:08.036Z,985.05
2019-05-19T06:48:08.015Z,985.03
2019-05-19T06:49:08.021Z,985.03
2019-05-19T06:50:08.014Z,985.06
2019-05-19T06:51:08.016Z,985.07
2019-05-19T06:52:08.013Z,984.99
2019-05-19T06:53:14.236Z,985.01
2019-05-19T06:54:08.012Z,985.00
2019-05-19T06:55:08.012Z,985.01
2019-05-19T06:56:08.015Z,985.04
2019-05-19T06:57:08.011Z,985.04
2019-05-19T06:58:08.019Z,985.03
2019-05-19T06:59:08.014Z,985.02
2019-05-19T07:00:08.048Z,985.08
2019-05-19T07:01:08.011Z,985.04
2019-05-19T07:02:08.010Z,985.02
2019-05-19T07:03:08.022Z,984.97
2019-05-19T07:04:08.007Z,984.85
2019-05-19T07:05:08.005Z,984.61
2019-05-19T07:06:08.012Z,984.37
2019-05-19T07:07:08.027Z,984.09
2019-05-19T07:08:08.007Z,983.78
2019-05-19T07:09:08.004Z,983.33
2019-05-19T07:10:08.018Z,983.09
2019-05-19T07:11:08.008Z,982.97
2019-05-19T07:12:08.006Z,982.63
2019-05-19T07:13:08.013Z,982.84
2019-05-19T07:14:08.005Z,982.99
2019-05-19T07:15:08.002Z,983.06
2019-05-19T07:16:08.010Z,983.10
2019-05-19T07:17:08.007Z,982.92
2019-05-19T07:18:08.002Z,982.66
2019-05-19T07:19:07.998Z,982.71
2019-05-19T07:20:07.997Z,982.66
2019-05-19T07:21:07.997Z,982.52
2019-05-19T07:22:07.997Z,982.66
2019-05-19T07:23:08.043Z,982.64
2019-05-19T07:24:07.999Z,982.30
2019-05-19T07:25:07.995Z,981.61
2019-05-19T07:26:07.997Z,981.33
2019-05-19T07:27:07.995Z,981.43
2019-05-19T07:28:07.991Z,981.66
2019-05-19T07:29:08.000Z,981.61
2019-05-19T07:30:08.003Z,981.29
2019-05-19T07:31:07.997Z,981.52
2019-05-19T07:32:07.990Z,981.87
2019-05-19T07:33:07.991Z,982.04
2019-05-19T07:34:07.992Z,981.76
2019-05-19T07:35:07.991Z,981.80
2019-05-19T07:36:07.989Z,981.55
2019-05-19T07:37:07.992Z,981.41
2019-05-19T07:38:07.991Z,981.43
2019-05-19T07:39:07.991Z,981.66
2019-05-19T07:40:07.987Z,981.27
2019-05-19T07:41:07.987Z,981.20
2019-05-19T07:42:07.985Z,981.21
2019-05-19T07:43:07.999Z,981.09
2019-05-19T07:44:07.989Z,980.83
2019-05-19T07:45:07.984Z,980.83
2019-05-19T07:46:07.986Z,980.77
2019-05-19T07:47:07.984Z,981.15
2019-05-19T07:48:07.986Z,980.88
2019-05-19T07:49:07.992Z,980.68
2019-05-19T07:50:07.987Z,981.23
2019-05-19T07:51:07.986Z,981.63
2019-05-19T07:52:07.982Z,981.80
2019-05-19T07:53:07.993Z,981.98
2019-05-19T07:54:07.985Z,982.32
2019-05-19T07:55:07.980Z,981.86
2019-05-19T07:56:07.986Z,982.06
2019-05-19T07:57:07.980Z,982.07
2019-05-19T07:58:07.984Z,982.71
2019-05-19T07:59:08.188Z,982.82
2019-05-19T08:00:08.171Z,982.78
2019-05-19T08:01:07.975Z,982.81
2019-05-19T08:02:07.976Z,982.59
2019-05-19T08:03:07.985Z,982.73
2019-05-19T08:04:07.986Z,982.46
2019-05-19T08:05:07.974Z,982.62
2019-05-19T08:06:08.084Z,982.54
2019-05-19T08:07:07.971Z,982.78
2019-05-19T08:08:07.970Z,982.97
2019-05-19T08:09:07.989Z,983.12
2019-05-19T08:10:07.978Z,983.42
2019-05-19T08:11:07.972Z,983.53
2019-05-19T08:12:07.967Z,983.58
2019-05-19T08:13:07.971Z,983.76
2019-05-19T08:14:07.968Z,983.79
2019-05-19T08:15:07.982Z,983.79
2019-05-19T08:16:07.970Z,983.59
2019-05-19T08:17:07.967Z,983.50
2019-05-19T08:18:07.966Z,983.49
2019-05-19T08:19:07.967Z,983.44
2019-05-19T08:20:07.970Z,983.13
2019-05-19T08:21:07.963Z,982.55
2019-05-19T08:22:07.964Z,982.44
2019-05-19T08:23:07.974Z,982.60
2019-05-19T08:24:07.965Z,982.90
2019-05-19T08:25:07.969Z,982.72
2019-05-19T08:26:07.969Z,983.21
2019-05-19T08:27:07.964Z,983.12
2019-05-19T08:28:09.120Z,982.69
2019-05-19T08:29:07.960Z,983.08
2019-05-19T08:30:07.973Z,982.41
2019-05-19T08:31:07.963Z,982.55
2019-05-19T08:32:07.980Z,982.70
2019-05-19T08:33:07.957Z,981.98
2019-05-19T08:34:08.160Z,981.57
2019-05-19T08:35:07.967Z,981.35
2019-05-19T08:36:07.960Z,981.80
2019-05-19T08:37:07.956Z,982.45
2019-05-19T08:38:07.955Z,982.69
2019-05-19T08:39:07.961Z,982.57
2019-05-19T08:40:07.973Z,982.82
2019-05-19T08:41:07.966Z,983.21
2019-05-19T08:42:07.953Z,983.56
2019-05-19T08:43:07.957Z,983.81
2019-05-19T08:44:07.956Z,983.45
2019-05-19T08:45:07.952Z,983.31
2019-05-19T08:46:07.955Z,983.41
2019-05-19T08:47:07.953Z,983.41
2019-05-19T08:48:07.954Z,983.26
2019-05-19T08:49:07.953Z,982.97
2019-05-19T08:50:07.948Z,983.00
2019-05-19T08:51:07.952Z,983.38
2019-05-19T08:52:07.950Z,983.27
2019-05-19T08:53:07.965Z,983.11
2019-05-19T08:54:14.858Z,983.24
2019-05-19T08:55:07.953Z,983.73
2019-05-19T08:56:08.125Z,983.54
2019-05-19T08:57:08.779Z,983.63
2019-05-19T08:58:09.666Z,984.02
2019-05-19T08:59:08.072Z,984.07
2019-05-19T09:00:08.009Z,984.09
2019-05-19T09:01:08.080Z,983.73
2019-05-19T09:02:08.037Z,983.38
2019-05-19T09:03:08.108Z,982.70
2019-05-19T09:04:08.860Z,982.63
2019-05-19T09:05:07.982Z,983.15
2019-05-19T09:06:07.956Z,983.53
2019-05-19T09:07:07.939Z,983.68
2019-05-19T09:08:07.941Z,983.48
2019-05-19T09:09:07.941Z,983.52
2019-05-19T09:10:07.945Z,983.61
2019-05-19T09:11:07.942Z,983.42
2019-05-19T09:12:07.938Z,983.04
2019-05-19T09:13:07.937Z,983.10
2019-05-19T09:14:08.050Z,982.85
2019-05-19T09:15:07.935Z,982.57
2019-05-19T09:16:07.951Z,982.72
2019-05-19T09:17:07.933Z,982.86
2019-05-19T09:18:07.936Z,982.80
2019-05-19T09:19:08.223Z,982.67
2019-05-19T09:20:07.932Z,982.30
2019-05-19T09:21:07.941Z,982.22
2019-05-19T09:22:07.934Z,982.33
2019-05-19T09:23:07.934Z,982.49
2019-05-19T09:24:07.934Z,983.25
2019-05-19T09:25:07.936Z,983.25
2019-05-19T09:26:07.948Z,983.19
2019-05-19T09:27:07.930Z,982.65
2019-05-19T09:28:07.926Z,982.48
2019-05-19T09:29:07.929Z,983.39
2019-05-19T09:30:07.928Z,983.41
2019-05-19T09:31:07.927Z,983.71
2019-05-19T09:32:07.928Z,983.65
2019-05-19T09:33:07.925Z,983.72
2019-05-19T09:34:07.931Z,983.21
2019-05-19T09:35:07.926Z,983.75
2019-05-19T09:36:07.924Z,984.33
2019-05-19T09:37:07.929Z,984.10
2019-05-19T09:38:07.927Z,984.02
2019-05-19T09:39:07.921Z,984.17
2019-05-19T09:40:07.922Z,983.74
2019-05-19T09:41:07.925Z,983.97
2019-05-19T09:42:07.925Z,984.37
2019-05-19T09:43:07.925Z,984.14
2019-05-19T09:44:07.917Z,984.21
2019-05-19T09:45:07.921Z,984.39
2019-05-19T09:46:07.918Z,984.62
2019-05-19T09:47:07.930Z,984.48
2019-05-19T09:48:07.918Z,983.56
2019-05-19T09:49:07.925Z,983.58
2019-05-19T09:50:07.925Z,983.87
2019-05-19T09:51:07.920Z,983.78
2019-05-19T09:52:07.919Z,983.86
2019-05-19T09:53:07.915Z,983.90
2019-05-19T09:54:07.914Z,983.74
2019-05-19T09:55:07.915Z,983.78
2019-05-19T09:56:07.918Z,983.75
2019-05-19T09:57:07.927Z,983.86
2019-05-19T09:58:07.911Z,984.10
2019-05-19T09:59:07.911Z,984.25
2019-05-19T10:00:07.910Z,984.33
2019-05-19T10:01:07.910Z,983.54
2019-05-19T10:02:07.910Z,983.54
2019-05-19T10:03:07.914Z,983.77
2019-05-19T10:04:07.910Z,983.85
2019-05-19T10:05:07.909Z,983.78
2019-05-19T10:06:07.907Z,983.27
2019-05-19T10:07:08.456Z,983.15
2019-05-19T10:08:07.908Z,983.43
2019-05-19T10:09:07.906Z,983.59
2019-05-19T10:10:07.917Z,983.37
2019-05-19T10:11:07.906Z,983.12
2019-05-19T10:12:07.903Z,982.97
2019-05-19T10:13:07.907Z,982.92
2019-05-19T10:14:07.903Z,982.24
2019-05-19T10:15:07.906Z,982.19
2019-05-19T10:16:07.901Z,982.30
2019-05-19T10:17:07.901Z,982.27
2019-05-19T10:18:07.908Z,982.03
2019-05-19T10:19:07.901Z,982.01
2019-05-19T10:20:07.937Z,982.46
2019-05-19T10:21:07.899Z,982.75
2019-05-19T10:22:07.898Z,982.64
2019-05-19T10:23:07.906Z,982.36
2019-05-19T10:24:07.898Z,981.07
2019-05-19T10:25:20.867Z,980.90
2019-05-19T10:26:07.896Z,981.01
2019-05-19T10:27:07.895Z,981.54
2019-05-19T10:28:07.898Z,981.30
2019-05-19T10:29:07.892Z,980.95
2019-05-19T10:30:07.898Z,981.64
2019-05-19T10:31:07.897Z,982.25
2019-05-19T10:32:07.893Z,982.23
2019-05-19T10:33:07.907Z,982.37
2019-05-19T10:34:07.892Z,982.38
2019-05-19T10:35:07.890Z,981.75
2019-05-19T10:36:07.896Z,981.54
2019-05-19T10:37:07.889Z,981.83
2019-05-19T10:38:07.898Z,981.63
2019-05-19T10:39:07.893Z,981.27
2019-05-19T10:40:07.890Z,981.32
2019-05-19T10:41:07.888Z,980.81
2019-05-19T10:42:07.888Z,980.98
2019-05-19T10:43:07.905Z,981.07
2019-05-19T10:44:07.889Z,981.56
2019-05-19T10:45:07.912Z,981.19
2019-05-19T10:46:07.889Z,980.64
2019-05-19T10:47:07.885Z,981.25
2019-05-19T10:48:07.883Z,980.61
2019-05-19T10:49:07.885Z,980.20
2019-05-19T10:50:07.886Z,980.29
2019-05-19T10:51:07.883Z,980.63
2019-05-19T10:52:07.881Z,981.23
2019-05-19T10:53:07.881Z,981.58
2019-05-19T10:54:07.884Z,981.44
2019-05-19T10:55:07.883Z,980.84
2019-05-19T10:56:07.880Z,980.54
2019-05-19T10:57:07.881Z,980.85
2019-05-19T10:58:07.880Z,980.96
2019-05-19T10:59:07.910Z,980.92
2019-05-19T11:00:07.882Z,981.29
2019-05-19T11:01:07.877Z,981.73
2019-05-19T11:02:07.876Z,981.71
2019-05-19T11:03:07.885Z,980.86
2019-05-19T11:04:07.880Z,981.23
2019-05-19T11:05:11.015Z,980.86
2019-05-19T11:06:07.914Z,980.89
2019-05-19T11:07:07.874Z,981.05
2019-05-19T11:08:07.874Z,981.32
2019-05-19T11:09:07.965Z,981.50
2019-05-19T11:10:07.883Z,981.51
2019-05-19T11:11:07.881Z,981.28
2019-05-19T11:12:07.872Z,981.12
2019-05-19T11:13:07.871Z,980.77
2019-05-19T11:14:07.877Z,980.62
2019-05-19T11:15:07.871Z,981.06
2019-05-19T11:16:07.876Z,981.06
2019-05-19T11:17:07.870Z,980.46
2019-05-19T11:18:07.867Z,980.88
2019-05-19T11:19:07.875Z,981.27
2019-05-19T11:20:07.866Z,981.29
2019-05-19T11:21:07.866Z,981.04
2019-05-19T11:22:07.870Z,980.20
2019-05-19T11:23:07.868Z,979.28
2019-05-19T11:24:07.869Z,979.72
2019-05-19T11:25:07.864Z,980.00
2019-05-19T11:26:07.863Z,979.82
2019-05-19T11:27:10.040Z,979.29
2019-05-19T11:28:07.861Z,979.29
2019-05-19T11:29:07.872Z,979.47
2019-05-19T11:30:07.869Z,978.97
2019-05-19T11:31:07.861Z,979.60
2019-05-19T11:32:07.861Z,979.91
2019-05-19T11:33:07.863Z,979.98
2019-05-19T11:34:07.872Z,980.01
2019-05-19T11:35:07.864Z,979.70
2019-05-19T11:36:07.859Z,979.81
2019-05-19T11:37:07.864Z,979.55
2019-05-19T11:38:07.862Z,979.15
2019-05-19T11:39:07.871Z,979.07
2019-05-19T11:40:07.857Z,979.14
2019-05-19T11:41:07.854Z,979.88
2019-05-19T11:42:07.853Z,980.34
2019-05-19T11:43:07.870Z,980.18
2019-05-19T11:44:07.865Z,979.80
2019-05-19T11:45:07.861Z,979.21
2019-05-19T11:46:07.855Z,978.69
2019-05-19T11:47:07.855Z,978.33
2019-05-19T11:48:07.851Z,978.02
2019-05-19T11:49:07.851Z,978.12
2019-05-19T11:50:07.854Z,979.08
2019-05-19T11:51:07.859Z,979.82
2019-05-19T11:52:07.849Z,979.80
2019-05-19T11:53:07.850Z,979.25
2019-05-19T11:54:07.851Z,979.74
2019-05-19T11:55:07.850Z,979.86
2019-05-19T11:56:11.201Z,979.55
2019-05-19T11:57:07.849Z,979.36
2019-05-19T11:58:07.846Z,979.33
2019-05-19T11:59:07.846Z,979.09
2019-05-19T12:00:07.854Z,979.43
2019-05-19T12:01:07.847Z,979.58
2019-05-19T12:02:07.871Z,979.53
2019-05-19T12:03:07.844Z,978.65
2019-05-19T12:04:07.844Z,978.79
2019-05-19T12:05:07.853Z,979.25
2019-05-19T12:06:07.842Z,979.74
2019-05-19T12:07:07.843Z,979.80
2019-05-19T12:08:07.840Z,979.98
2019-05-19T12:09:07.840Z,980.36
2019-05-19T12:10:07.849Z,980.64
2019-05-19T12:11:07.842Z,980.75
2019-05-19T12:12:07.838Z,980.73
2019-05-19T12:13:07.842Z,980.70
2019-05-19T12:14:07.839Z,980.61
2019-05-19T12:15:07.847Z,980.53
2019-05-19T12:16:07.837Z,980.33
2019-05-19T12:17:08.006Z,980.12
2019-05-19T12:18:07.842Z,980.13
2019-05-19T12:19:07.836Z,980.21
2019-05-19T12:20:07.840Z,979.69
2019-05-19T12:21:07.830Z,979.68
2019-05-19T12:22:07.836Z,979.52
2019-05-19T12:23:07.838Z,979.49
2019-05-19T12:24:07.832Z,978.95
2019-05-19T12:25:07.835Z,979.04
2019-05-19T12:26:22.299Z,979.57
2019-05-19T12:27:07.832Z,979.49
2019-05-19T12:28:07.835Z,979.39